Dimitrios X. — SVA7053 — position and weather

sailwx.info

Track history (hours):
 
Tides and Currents Weather Stations Pressure Air Temp Water Temp Dewpoint Dewpoint Depression Visibility Wind Speed Wind Dir Waves Ship Positions

Dimitrios X.

Last reported at 2018-Jun-19 13:55 UTC. Time now 2018-Jun-19 20:08 UTC.
Position N 40°51' E 024°19'.

Length 100 m; draft 2.3 m.

Type: Ship. MMSI: 239965400.

Date/timePositionNaut miles runAvg speedWind from/ knotsBaromVisibWave heightAir tempDewpointWater temp
2018-Jun-19 13:55N 40°51' E 024°19'2 5.8
2018-Jun-19 13:30N 40°50' E 024°22'612.3
2018-Jun-19 13:00N 40°47' E 024°29'4 8.8
2018-Jun-19 12:30N 40°46' E 024°35'5 9.0
2018-Jun-19 12:00N 40°48' E 024°40'2 4.3
2018-Jun-19 11:30N 40°47' E 024°42'4 9.0
2018-Jun-19 11:00N 40°51' E 024°42'0 0.0
2018-Jun-19 10:31N 40°51' E 024°42'2 4.2
2018-Jun-19 10:00N 40°49' E 024°42'3 5.3
2018-Jun-19 09:31N 40°47' E 024°42'0 0.0
2018-Jun-19 09:00N 40°47' E 024°42'0 0.0
2018-Jun-19 08:30N 40°47' E 024°42'0 0.1
2018-Jun-19 08:01N 40°47' E 024°42'1 1.4
2018-Jun-19 07:31N 40°47' E 024°42'4 8.0
2018-Jun-19 07:00N 40°51' E 024°42'0 0.0
2018-Jun-19 06:31N 40°51' E 024°42'2 4.6
2018-Jun-19 06:01N 40°49' E 024°41'3 5.2
2018-Jun-19 05:30N 40°47' E 024°42'1 1.0
2018-Jun-19 05:00N 40°47' E 024°42'4 8.4
2018-Jun-19 04:31N 40°51' E 024°42'0 0.0
2018-Jun-19 04:01N 40°51' E 024°42'2 4.4
2018-Jun-19 03:31N 40°49' E 024°41'3 5.2
2018-Jun-19 03:01N 40°47' E 024°42'0 0.0
2018-Jun-18 12:44N 40°47' E 024°43'0 0.0
2018-Jun-18 12:30N 40°47' E 024°43'1 1.7
2018-Jun-18 12:00N 40°47' E 024°42'4 8.1
2018-Jun-18 11:30N 40°51' E 024°42'0 0.0
2018-Jun-18 11:00N 40°51' E 024°42'2 4.5
2018-Jun-18 10:30N 40°49' E 024°41'3 5.4
2018-Jun-18 10:00N 40°47' E 024°42'0 0.0
2018-Jun-18 09:30N 40°47' E 024°42'1 1.6
2018-Jun-18 09:00N 40°47' E 024°42'4 8.0
2018-Jun-18 08:30N 40°51' E 024°42'0 0.0
2018-Jun-18 08:00N 40°51' E 024°42'2 4.5
2018-Jun-18 07:30N 40°49' E 024°41'3 5.5
2018-Jun-18 07:00N 40°47' E 024°42'0 0.0
2018-Jun-18 06:30N 40°47' E 024°42'0 0.0
2018-Jun-18 06:00N 40°47' E 024°42'0 0.0
2018-Jun-18 05:30N 40°47' E 024°42'0 0.0
2018-Jun-18 05:00N 40°47' E 024°42'1 1.3
2018-Jun-18 04:30N 40°47' E 024°42'4 8.2
2018-Jun-18 04:00N 40°51' E 024°42'0 0.0
2018-Jun-18 03:30N 40°51' E 024°42'1 2.1
2018-Jun-18 03:00N 40°51' E 024°41'5 9.3
2018-Jun-18 02:30N 40°47' E 024°42'0 0.0
2018-Jun-18 02:00N 40°47' E 024°42'0 0.0
2018-Jun-17 16:16N 40°47' E 024°42'1 2.4
2018-Jun-17 16:01N 40°47' E 024°42'4 8.3
2018-Jun-17 15:30N 40°51' E 024°42'0 0.0
2018-Jun-17 15:01N 40°51' E 024°42'2 5.0
2018-Jun-17 14:31N 40°49' E 024°41'2 4.8
2018-Jun-17 14:00N 40°47' E 024°42'0 0.0
2018-Jun-17 13:31N 40°47' E 024°42'0 0.0
2018-Jun-17 13:01N 40°47' E 024°42'1 1.5
2018-Jun-17 12:31N 40°47' E 024°42'4 8.1
2018-Jun-17 12:01N 40°51' E 024°42'0 0.0
2018-Jun-17 11:30N 40°51' E 024°42'2 4.6
2018-Jun-17 10:59N 40°49' E 024°41'2 5.0
2018-Jun-17 10:30N 40°47' E 024°42'0 0.6
2018-Jun-17 10:01N 40°47' E 024°42'4 8.6
2018-Jun-17 09:30N 40°51' E 024°42'0 0.0
2018-Jun-17 09:00N 40°51' E 024°42'2 4.3
2018-Jun-17 08:31N 40°49' E 024°41'3 5.5
2018-Jun-17 08:01N 40°47' E 024°42'0 0.0
2018-Jun-16 13:10N 40°47' E 024°43'0 0.0
2018-Jun-16 13:01N 40°47' E 024°43'4 8.1
2018-Jun-16 12:30N 40°48' E 024°37'2 4.7
2018-Jun-16 12:00N 40°48' E 024°40'1 2.2
2018-Jun-16 11:30N 40°47' E 024°42'4 8.4
2018-Jun-16 11:01N 40°51' E 024°42'0 0.0
2018-Jun-16 10:31N 40°51' E 024°42'2 3.9
2018-Jun-16 10:00N 40°50' E 024°41'3 5.7
2018-Jun-16 09:30N 40°47' E 024°42'0 0.0
2018-Jun-16 08:58N 40°47' E 024°42'0 0.0
2018-Jun-16 08:30N 40°47' E 024°42'0 0.0
2018-Jun-16 08:00N 40°47' E 024°42'1 1.1
2018-Jun-16 07:31N 40°47' E 024°42'4 8.4
2018-Jun-16 07:00N 40°51' E 024°42'0 0.0
2018-Jun-16 06:31N 40°51' E 024°42'2 4.4
2018-Jun-16 06:00N 40°49' E 024°41'3 5.5
2018-Jun-16 05:30N 40°47' E 024°42'1 1.6
2018-Jun-16 05:00N 40°47' E 024°42'4 8.1
2018-Jun-16 04:31N 40°51' E 024°42'0 0.0
2018-Jun-16 04:00N 40°51' E 024°42'3 6.4
2018-Jun-16 03:30N 40°48' E 024°41'2 3.3
2018-Jun-16 03:00N 40°47' E 024°42'0 0.0
2018-Jun-15 10:46N 40°47' E 024°42'0 0.1
2018-Jun-15 10:31N 40°47' E 024°42'5 9.3
2018-Jun-15 10:01N 40°51' E 024°42'0 0.0
2018-Jun-15 09:31N 40°51' E 024°42'2 4.0
2018-Jun-15 09:00N 40°50' E 024°41'3 6.0
2018-Jun-15 08:31N 40°47' E 024°42'0 0.0
2018-Jun-15 08:01N 40°47' E 024°42'0 0.0
2018-Jun-15 07:31N 40°47' E 024°42'1 1.8
2018-Jun-15 07:01N 40°48' E 024°42'4 7.0
2018-Jun-15 06:28N 40°51' E 024°42'0 0.0
2018-Jun-15 06:01N 40°51' E 024°42'2 4.3
2018-Jun-15 05:30N 40°49' E 024°41'3 5.2
2018-Jun-15 05:01N 40°47' E 024°42'1 1.9
2018-Jun-15 04:30N 40°48' E 024°42'4 7.6
2018-Jun-15 04:01N 40°51' E 024°42'0 0.0
2018-Jun-14 20:42N 40°51' E 024°42'1 3.1
2018-Jun-14 20:30N 40°52' E 024°41'5 9.8
2018-Jun-14 20:00N 40°47' E 024°42'0 0.0
2018-Jun-14 19:30N 40°47' E 024°42'0 0.0
2018-Jun-14 19:00N 40°47' E 024°42'1 1.3
2018-Jun-14 18:30N 40°47' E 024°42'4 8.2
2018-Jun-14 18:00N 40°51' E 024°42'1 1.0
2018-Jun-14 17:30N 40°52' E 024°41'5 9.8
2018-Jun-14 17:00N 40°47' E 024°42'1 1.6
2018-Jun-14 16:31N 40°48' E 024°42'4 7.7
2018-Jun-14 16:00N 40°51' E 024°42'0 0.0
2018-Jun-14 15:30N 40°51' E 024°42'2 4.4
2018-Jun-14 15:00N 40°49' E 024°41'3 5.1
2018-Jun-14 14:30N 40°47' E 024°42'5 0.2
2018-Jun-13 08:29N 40°51' E 024°42'1 2.4
2018-Jun-13 08:00N 40°51' E 024°41'4 7.0
2018-Jun-13 07:30N 40°47' E 024°42'4 8.5
2018-Jun-13 07:01N 40°51' E 024°42'0 0.0
2018-Jun-13 06:30N 40°51' E 024°42'2 4.2
2018-Jun-13 06:00N 40°49' E 024°42'3 5.2
2018-Jun-13 05:30N 40°47' E 024°42'0 0.4
2018-Jun-13 05:00N 40°47' E 024°42'4 9.0
2018-Jun-13 04:30N 40°51' E 024°42'0 0.0
2018-Jun-13 04:00N 40°51' E 024°42'2 4.2
2018-Jun-13 03:30N 40°49' E 024°41'3 5.0
2018-Jun-13 02:58N 40°47' E 024°42'3 7.3
2018-Jun-13 02:30N 40°50' E 024°41'2 0.2
2018-Jun-12 19:08N 40°51' E 024°42'0 1.2
2018-Jun-12 19:01N 40°52' E 024°42'5 9.2
2018-Jun-12 18:30N 40°47' E 024°42'0 0.0
2018-Jun-12 18:00N 40°47' E 024°42'1 1.6
2018-Jun-12 17:30N 40°48' E 024°42'4 8.1
2018-Jun-12 17:00N 40°51' E 024°42'0 0.0
2018-Jun-12 16:31N 40°51' E 024°42'2 4.2
2018-Jun-12 16:01N 40°50' E 024°41'3 5.7
2018-Jun-12 15:30N 40°47' E 024°42'1 1.9
2018-Jun-12 15:00N 40°48' E 024°42'4 7.7
2018-Jun-12 14:30N 40°51' E 024°42'0 0.0
2018-Jun-12 14:00N 40°51' E 024°42'2 4.2
2018-Jun-12 13:30N 40°49' E 024°41'3 5.5
2018-Jun-12 13:00N 40°47' E 024°42'0 0.0
2018-Jun-11 20:49N 40°47' E 024°43'1 3.4
2018-Jun-11 20:30N 40°48' E 024°42'4 7.6
2018-Jun-11 20:00N 40°51' E 024°42'0 0.6
2018-Jun-11 19:30N 40°52' E 024°42'5 9.5
2018-Jun-11 19:00N 40°47' E 024°42'0 0.0
2018-Jun-11 18:30N 40°47' E 024°42'1 1.8
2018-Jun-11 18:00N 40°48' E 024°42'4 7.7
2018-Jun-11 17:30N 40°51' E 024°42'0 0.0
2018-Jun-11 17:00N 40°51' E 024°42'2 4.2
2018-Jun-11 16:30N 40°49' E 024°41'3 5.4
2018-Jun-11 16:00N 40°47' E 024°42'0 0.0
2018-Jun-11 15:30N 40°47' E 024°42'0 0.0
2018-Jun-11 15:00N 40°47' E 024°42'1 2.1
2018-Jun-11 14:30N 40°48' E 024°41'4 7.5
2018-Jun-11 14:00N 40°51' E 024°42'0 0.0
2018-Jun-11 13:30N 40°51' E 024°42'3 5.4
2018-Jun-11 13:00N 40°49' E 024°41'2 4.2
2018-Jun-11 12:30N 40°47' E 024°42'0 0.0
2018-Jun-10 19:38N 40°47' E 024°42'1 4.3
2018-Jun-10 19:30N 40°47' E 024°42'4 8.5
2018-Jun-10 19:00N 40°51' E 024°42'0 0.0
2018-Jun-10 18:30N 40°51' E 024°42'2 4.3
2018-Jun-10 18:00N 40°49' E 024°41'3 5.5
2018-Jun-10 17:30N 40°47' E 024°42'1 1.5
2018-Jun-10 17:00N 40°47' E 024°42'4 8.2
2018-Jun-10 16:30N 40°51' E 024°42'0 0.0
2018-Jun-10 16:00N 40°51' E 024°42'2 4.8
2018-Jun-10 15:30N 40°49' E 024°41'3 5.2
2018-Jun-10 15:00N 40°47' E 024°42'0 0.0
2018-Jun-10 14:29N 40°47' E 024°42'1 0.9
2018-Jun-10 13:31N 40°48' E 024°42'4 7.8
2018-Jun-10 13:00N 40°51' E 024°42'0 0.0
2018-Jun-10 12:30N 40°51' E 024°42'2 3.7
2018-Jun-10 12:00N 40°50' E 024°41'3 5.9
2018-Jun-10 11:30N 40°47' E 024°42'3 6.0
2018-Jun-10 11:00N 40°48' E 024°39'4 8.7
2018-Jun-10 10:30N 40°46' E 024°35'0 0.0
2018-Jun-09 17:22N 40°46' E 024°35'3 8.7
2018-Jun-09 17:00N 40°48' E 024°38'3 6.3
2018-Jun-09 16:30N 40°47' E 024°42'4 8.0
2018-Jun-09 16:00N 40°51' E 024°42'2 1.8
2018-Jun-09 15:00N 40°50' E 024°41'3 6.4
2018-Jun-09 14:31N 40°47' E 024°42'0 0.0
2018-Jun-09 14:01N 40°47' E 024°42'  
Track history (hours):
 
Tides and Currents Weather Stations Pressure Air Temp Water Temp Dewpoint Dewpoint Depression Visibility Wind Speed Wind Dir Waves Ship Positions

Dimitrios X.

Last reported at 2018-Jun-19 13:55 UTC. Time now 2018-Jun-19 20:08 UTC.
Position N 40°51' E 024°19'.

Length 100 m; draft 2.3 m.

Type: Ship. MMSI: 239965400.

Date/timePositionNaut miles runAvg speedWind from/ knotsBaromVisibWave heightAir tempDewpointWater temp
2018-Jun-19 13:55N 40°51' E 024°19'2 5.8
2018-Jun-19 13:30N 40°50' E 024°22'612.3
2018-Jun-19 13:00N 40°47' E 024°29'4 8.8
2018-Jun-19 12:30N 40°46' E 024°35'5 9.0
2018-Jun-19 12:00N 40°48' E 024°40'2 4.3
2018-Jun-19 11:30N 40°47' E 024°42'4 9.0
2018-Jun-19 11:00N 40°51' E 024°42'0 0.0
2018-Jun-19 10:31N 40°51' E 024°42'2 4.2
2018-Jun-19 10:00N 40°49' E 024°42'3 5.3
2018-Jun-19 09:31N 40°47' E 024°42'0 0.0
2018-Jun-19 09:00N 40°47' E 024°42'0 0.0
2018-Jun-19 08:30N 40°47' E 024°42'0 0.1
2018-Jun-19 08:01N 40°47' E 024°42'1 1.4
2018-Jun-19 07:31N 40°47' E 024°42'4 8.0
2018-Jun-19 07:00N 40°51' E 024°42'0 0.0
2018-Jun-19 06:31N 40°51' E 024°42'2 4.6
2018-Jun-19 06:01N 40°49' E 024°41'3 5.2
2018-Jun-19 05:30N 40°47' E 024°42'1 1.0
2018-Jun-19 05:00N 40°47' E 024°42'4 8.4
2018-Jun-19 04:31N 40°51' E 024°42'0 0.0
2018-Jun-19 04:01N 40°51' E 024°42'2 4.4
2018-Jun-19 03:31N 40°49' E 024°41'3 5.2
2018-Jun-19 03:01N 40°47' E 024°42'0 0.0
2018-Jun-18 12:44N 40°47' E 024°43'0 0.0
2018-Jun-18 12:30N 40°47' E 024°43'1 1.7
2018-Jun-18 12:00N 40°47' E 024°42'4 8.1
2018-Jun-18 11:30N 40°51' E 024°42'0 0.0
2018-Jun-18 11:00N 40°51' E 024°42'2 4.5
2018-Jun-18 10:30N 40°49' E 024°41'3 5.4
2018-Jun-18 10:00N 40°47' E 024°42'0 0.0
2018-Jun-18 09:30N 40°47' E 024°42'1 1.6
2018-Jun-18 09:00N 40°47' E 024°42'4 8.0
2018-Jun-18 08:30N 40°51' E 024°42'0 0.0
2018-Jun-18 08:00N 40°51' E 024°42'2 4.5
2018-Jun-18 07:30N 40°49' E 024°41'3 5.5
2018-Jun-18 07:00N 40°47' E 024°42'0 0.0
2018-Jun-18 06:30N 40°47' E 024°42'0 0.0
2018-Jun-18 06:00N 40°47' E 024°42'0 0.0
2018-Jun-18 05:30N 40°47' E 024°42'0 0.0
2018-Jun-18 05:00N 40°47' E 024°42'1 1.3
2018-Jun-18 04:30N 40°47' E 024°42'4 8.2
2018-Jun-18 04:00N 40°51' E 024°42'0 0.0
2018-Jun-18 03:30N 40°51' E 024°42'1 2.1
2018-Jun-18 03:00N 40°51' E 024°41'5 9.3
2018-Jun-18 02:30N 40°47' E 024°42'0 0.0
2018-Jun-18 02:00N 40°47' E 024°42'0 0.0
2018-Jun-17 16:16N 40°47' E 024°42'1 2.4
2018-Jun-17 16:01N 40°47' E 024°42'4 8.3
2018-Jun-17 15:30N 40°51' E 024°42'0 0.0
2018-Jun-17 15:01N 40°51' E 024°42'2 5.0
2018-Jun-17 14:31N 40°49' E 024°41'2 4.8
2018-Jun-17 14:00N 40°47' E 024°42'0 0.0
2018-Jun-17 13:31N 40°47' E 024°42'0 0.0
2018-Jun-17 13:01N 40°47' E 024°42'1 1.5
2018-Jun-17 12:31N 40°47' E 024°42'4 8.1
2018-Jun-17 12:01N 40°51' E 024°42'0 0.0
2018-Jun-17 11:30N 40°51' E 024°42'2 4.6
2018-Jun-17 10:59N 40°49' E 024°41'2 5.0
2018-Jun-17 10:30N 40°47' E 024°42'0 0.6
2018-Jun-17 10:01N 40°47' E 024°42'4 8.6
2018-Jun-17 09:30N 40°51' E 024°42'0 0.0
2018-Jun-17 09:00N 40°51' E 024°42'2 4.3
2018-Jun-17 08:31N 40°49' E 024°41'3 5.5
2018-Jun-17 08:01N 40°47' E 024°42'0 0.0
2018-Jun-16 13:10N 40°47' E 024°43'0 0.0
2018-Jun-16 13:01N 40°47' E 024°43'4 8.1
2018-Jun-16 12:30N 40°48' E 024°37'2 4.7
2018-Jun-16 12:00N 40°48' E 024°40'1 2.2
2018-Jun-16 11:30N 40°47' E 024°42'4 8.4
2018-Jun-16 11:01N 40°51' E 024°42'0 0.0
2018-Jun-16 10:31N 40°51' E 024°42'2 3.9
2018-Jun-16 10:00N 40°50' E 024°41'3 5.7
2018-Jun-16 09:30N 40°47' E 024°42'0 0.0
2018-Jun-16 08:58N 40°47' E 024°42'0 0.0
2018-Jun-16 08:30N 40°47' E 024°42'0 0.0
2018-Jun-16 08:00N 40°47' E 024°42'1 1.1
2018-Jun-16 07:31N 40°47' E 024°42'4 8.4
2018-Jun-16 07:00N 40°51' E 024°42'0 0.0
2018-Jun-16 06:31N 40°51' E 024°42'2 4.4
2018-Jun-16 06:00N 40°49' E 024°41'3 5.5
2018-Jun-16 05:30N 40°47' E 024°42'1 1.6
2018-Jun-16 05:00N 40°47' E 024°42'4 8.1
2018-Jun-16 04:31N 40°51' E 024°42'0 0.0
2018-Jun-16 04:00N 40°51' E 024°42'3 6.4
2018-Jun-16 03:30N 40°48' E 024°41'2 3.3
2018-Jun-16 03:00N 40°47' E 024°42'0 0.0
2018-Jun-15 10:46N 40°47' E 024°42'0 0.1
2018-Jun-15 10:31N 40°47' E 024°42'5 9.3
2018-Jun-15 10:01N 40°51' E 024°42'0 0.0
2018-Jun-15 09:31N 40°51' E 024°42'2 4.0
2018-Jun-15 09:00N 40°50' E 024°41'3 6.0
2018-Jun-15 08:31N 40°47' E 024°42'0 0.0
2018-Jun-15 08:01N 40°47' E 024°42'0 0.0
2018-Jun-15 07:31N 40°47' E 024°42'1 1.8
2018-Jun-15 07:01N 40°48' E 024°42'4 7.0
2018-Jun-15 06:28N 40°51' E 024°42'0 0.0
2018-Jun-15 06:01N 40°51' E 024°42'2 4.3
2018-Jun-15 05:30N 40°49' E 024°41'3 5.2
2018-Jun-15 05:01N 40°47' E 024°42'1 1.9
2018-Jun-15 04:30N 40°48' E 024°42'4 7.6
2018-Jun-15 04:01N 40°51' E 024°42'0 0.0
2018-Jun-14 20:42N 40°51' E 024°42'1 3.1
2018-Jun-14 20:30N 40°52' E 024°41'5 9.8
2018-Jun-14 20:00N 40°47' E 024°42'0 0.0
2018-Jun-14 19:30N 40°47' E 024°42'0 0.0
2018-Jun-14 19:00N 40°47' E 024°42'1 1.3
2018-Jun-14 18:30N 40°47' E 024°42'4 8.2
2018-Jun-14 18:00N 40°51' E 024°42'1 1.0
2018-Jun-14 17:30N 40°52' E 024°41'5 9.8
2018-Jun-14 17:00N 40°47' E 024°42'1 1.6
2018-Jun-14 16:31N 40°48' E 024°42'4 7.7
2018-Jun-14 16:00N 40°51' E 024°42'0 0.0
2018-Jun-14 15:30N 40°51' E 024°42'2 4.4
2018-Jun-14 15:00N 40°49' E 024°41'3 5.1
2018-Jun-14 14:30N 40°47' E 024°42'5 0.2
2018-Jun-13 08:29N 40°51' E 024°42'1 2.4
2018-Jun-13 08:00N 40°51' E 024°41'4 7.0
2018-Jun-13 07:30N 40°47' E 024°42'4 8.5
2018-Jun-13 07:01N 40°51' E 024°42'0 0.0
2018-Jun-13 06:30N 40°51' E 024°42'2 4.2
2018-Jun-13 06:00N 40°49' E 024°42'3 5.2
2018-Jun-13 05:30N 40°47' E 024°42'0 0.4
2018-Jun-13 05:00N 40°47' E 024°42'4 9.0
2018-Jun-13 04:30N 40°51' E 024°42'0 0.0
2018-Jun-13 04:00N 40°51' E 024°42'2 4.2
2018-Jun-13 03:30N 40°49' E 024°41'3 5.0
2018-Jun-13 02:58N 40°47' E 024°42'3 7.3
2018-Jun-13 02:30N 40°50' E 024°41'2 0.2
2018-Jun-12 19:08N 40°51' E 024°42'0 1.2
2018-Jun-12 19:01N 40°52' E 024°42'5 9.2
2018-Jun-12 18:30N 40°47' E 024°42'0 0.0
2018-Jun-12 18:00N 40°47' E 024°42'1 1.6
2018-Jun-12 17:30N 40°48' E 024°42'4 8.1
2018-Jun-12 17:00N 40°51' E 024°42'0 0.0
2018-Jun-12 16:31N 40°51' E 024°42'2 4.2
2018-Jun-12 16:01N 40°50' E 024°41'3 5.7
2018-Jun-12 15:30N 40°47' E 024°42'1 1.9
2018-Jun-12 15:00N 40°48' E 024°42'4 7.7
2018-Jun-12 14:30N 40°51' E 024°42'0 0.0
2018-Jun-12 14:00N 40°51' E 024°42'2 4.2
2018-Jun-12 13:30N 40°49' E 024°41'3 5.5
2018-Jun-12 13:00N 40°47' E 024°42'0 0.0
2018-Jun-11 20:49N 40°47' E 024°43'1 3.4
2018-Jun-11 20:30N 40°48' E 024°42'4 7.6
2018-Jun-11 20:00N 40°51' E 024°42'0 0.6
2018-Jun-11 19:30N 40°52' E 024°42'5 9.5
2018-Jun-11 19:00N 40°47' E 024°42'0 0.0
2018-Jun-11 18:30N 40°47' E 024°42'1 1.8
2018-Jun-11 18:00N 40°48' E 024°42'4 7.7
2018-Jun-11 17:30N 40°51' E 024°42'0 0.0
2018-Jun-11 17:00N 40°51' E 024°42'2 4.2
2018-Jun-11 16:30N 40°49' E 024°41'3 5.4
2018-Jun-11 16:00N 40°47' E 024°42'0 0.0
2018-Jun-11 15:30N 40°47' E 024°42'0 0.0
2018-Jun-11 15:00N 40°47' E 024°42'1 2.1
2018-Jun-11 14:30N 40°48' E 024°41'4 7.5
2018-Jun-11 14:00N 40°51' E 024°42'0 0.0
2018-Jun-11 13:30N 40°51' E 024°42'3 5.4
2018-Jun-11 13:00N 40°49' E 024°41'2 4.2
2018-Jun-11 12:30N 40°47' E 024°42'0 0.0
2018-Jun-10 19:38N 40°47' E 024°42'1 4.3
2018-Jun-10 19:30N 40°47' E 024°42'4 8.5
2018-Jun-10 19:00N 40°51' E 024°42'0 0.0
2018-Jun-10 18:30N 40°51' E 024°42'2 4.3
2018-Jun-10 18:00N 40°49' E 024°41'3 5.5
2018-Jun-10 17:30N 40°47' E 024°42'1 1.5
2018-Jun-10 17:00N 40°47' E 024°42'4 8.2
2018-Jun-10 16:30N 40°51' E 024°42'0 0.0
2018-Jun-10 16:00N 40°51' E 024°42'2 4.8
2018-Jun-10 15:30N 40°49' E 024°41'3 5.2
2018-Jun-10 15:00N 40°47' E 024°42'0 0.0
2018-Jun-10 14:29N 40°47' E 024°42'1 0.9
2018-Jun-10 13:31N 40°48' E 024°42'4 7.8
2018-Jun-10 13:00N 40°51' E 024°42'0 0.0
2018-Jun-10 12:30N 40°51' E 024°42'2 3.7
2018-Jun-10 12:00N 40°50' E 024°41'3 5.9
2018-Jun-10 11:30N 40°47' E 024°42'3 6.0
2018-Jun-10 11:00N 40°48' E 024°39'4 8.7
2018-Jun-10 10:30N 40°46' E 024°35'0 0.0
2018-Jun-09 17:22N 40°46' E 024°35'3 8.7
2018-Jun-09 17:00N 40°48' E 024°38'3 6.3
2018-Jun-09 16:30N 40°47' E 024°42'4 8.0
2018-Jun-09 16:00N 40°51' E 024°42'2 1.8
2018-Jun-09 15:00N 40°50' E 024°41'3 6.4
2018-Jun-09 14:31N 40°47' E 024°42'0 0.0
2018-Jun-09 14:01N 40°47' E 024°42'  

Dump ship's entire track history